• Join FlightAware (Why Join?)
  • Login
  • US Flag 
07:47PM EDT


 

Airport Tracker/Info


-or-


 

Live Flight TrackerFlight Track Log ✈ N9009Y ✈ 17-Mar-2014 ✈ KDAB - KPMP

Flight Track Log - Related Links

Times and Time Zones

All times are in EDT time to prevent confusion due to time zone crossing. See the N9009Y flight status page for this flight to view local times or setup timezone preferences in your user account.

Time Position Orientation Groundspeed Altitude Reporting Facility
EDT Latitude Longitude Course Direction KTS MPH feet Rate Location/Type
11:05AM 28.9667 -80.8667 139° Southeast 123 142 2,100  Level Orlando TRACON
11:06AM 28.9333 -80.8333 139° Southeast 123 142 2,300 120 Climbing Orlando TRACON
11:07AM 28.9167 -80.8167 139° Southeast 117 135 2,400 60 Climbing Orlando TRACON
11:08AM 28.8833 -80.8000 156° South 113 130 2,500 60 Climbing Orlando TRACON
11:09AM 28.8500 -80.8000 180° South 121 139 2,600 120 Climbing Orlando TRACON
11:10AM 28.8167 -80.7833 156° South 128 147 2,800  Climbing Orlando TRACON
11:11AM 28.7833 -80.7667 156° South 145 167 2,700 -120 Descending Orlando TRACON
11:12AM 28.7333 -80.7500 164° South 144 166 2,600 -60 Descending Orlando TRACON
11:13AM 28.7000 -80.7500 180° South 141 162 2,600 -60 Level Orlando TRACON
11:14AM 28.6667 -80.7333 156° South 141 162 2,500 -60 Descending Orlando TRACON
11:15AM 28.6333 -80.7167 156° South 132 152 2,500  Level Orlando TRACON
11:16AM 28.6000 -80.7167 180° South 135 155 2,500  Level Orlando TRACON
11:17AM 28.5500 -80.7000 164° South 134 154 2,500  Level Orlando TRACON
11:18AM 28.5167 -80.7000 180° South 134 154 2,500  Level Orlando TRACON
11:19AM 28.4833 -80.6833 156° South 134 154 2,500  Level Orlando TRACON
11:20AM 28.4333 -80.6833 180° South 136 157 2,600  Climbing Orlando TRACON
11:21AM 28.4000 -80.6667 156° South 132 152 2,600  Level Orlando TRACON
11:22AM 28.3667 -80.6667 180° South 135 155 2,600  Level Orlando TRACON
11:23AM 28.3333 -80.6667 180° South 133 153 2,600  Level Orlando TRACON
11:24AM 28.3000 -80.6500 156° South 134 154 2,600  Level Orlando TRACON
11:25AM 28.2667 -80.6500 180° South 138 159 2,600 -60 Level Orlando TRACON
11:26AM 28.2167 -80.6333 164° South 139 160 2,500 -60 Descending Orlando TRACON
11:27AM 28.1833 -80.6333 180° South 139 160 2,500  Level Orlando TRACON
11:27AM 28.1544 -80.6217 160° South 137 158 2,500  Level Miami Center
11:29AM 28.1144 -80.6106 166° South 139 160 2,500  Level Miami Center
11:30AM 28.0786 -80.6017 168° South 139 160 2,500  Level Miami Center
11:31AM 28.0394 -80.5894 165° South 139 160 2,500  Level Miami Center
11:32AM 28.0014 -80.5814 169° South 137 158 2,500  Level Miami Center
11:33AM 27.9636 -80.5758 173° South 134 154 2,500  Level Miami Center
11:34AM 27.9247 -80.5669 169° South 134 154 2,500  Level Miami Center
11:35AM 27.8861 -80.5592 170° South 134 154 2,500  Level Miami Center
11:36AM 27.8483 -80.5506 169° South 134 154 2,500  Level Miami Center
11:37AM 27.8103 -80.5425 169° South 133 153 2,600  Climbing Miami Center
11:38AM 27.7756 -80.5339 168° South 133 153 2,600  Level Miami Center
11:39AM 27.7375 -80.5244 168° South 133 153 2,700 180 Climbing Miami Center
11:40AM 27.7014 -80.5139 165° South 131 151 3,000 120 Climbing Miami Center
11:41AM 27.6647 -80.5064 170° South 128 147 3,000  Level Miami Center
11:42AM 27.6264 -80.4939 164° South 134 154 3,000  Level Miami Center
11:43AM 27.5883 -80.4875 172° South 134 154 3,100  Climbing Miami Center
11:44AM 27.5500 -80.4778 167° South 134 154 3,100 60 Level Miami Center
11:45AM 27.5125 -80.4683 167° South 134 154 3,300 60 Climbing Miami Center
11:46AM 27.4767 -80.4614 170° South 134 154 3,300  Level Miami Center
11:47AM 27.4386 -80.4600 178° South 133 153 3,400 240 Climbing Miami Center
11:48AM 27.4042 -80.4408 154° Southeast 132 152 3,800 180 Climbing Miami Center
11:49AM 27.3672 -80.4247 159° South 136 157 3,800  Level Miami Center
11:50AM 27.3275 -80.4094 161° South 140 161 3,800  Level Miami Center
11:51AM 27.2861 -80.4014 170° South 141 162 3,800  Level Miami Center
11:52AM 27.2472 -80.3822 156° South 150 173 3,800  Level Miami Center
11:53AM 27.2103 -80.3608 153° Southeast 148 170 3,800 -240 Level Miami Center
11:54AM 27.1728 -80.3344 148° Southeast 165 190 3,400 -480 Descending Miami Center
11:55AM 27.1289 -80.3133 157° South 165 190 2,900 -480 Descending Miami Center
11:57AM 27.0858 -80.2942 158° South 162 186 2,500 -240 Descending Miami Center
11:58AM 27.0447 -80.2803 163° South 150 173 2,400  Descending Miami Center
11:59AM 27.0067 -80.2667 162° South 142 163 2,500 120 Climbing Miami Center
12:00PM 26.9694 -80.2478 156° South 141 162 2,700  Climbing Miami Center
12:01PM 26.9308 -80.2375 167° South 138 159 2,600 -120 Descending Miami Center
12:02PM 26.8967 -80.2081 142° Southeast 150 173 2,500  Descending Miami Center
12:03PM 26.8692 -80.1678 127° Southeast 154 177 2,600  Climbing Miami Center
12:04PM 26.8433 -80.1339 131° Southeast 153 176 2,600  Level Miami Center
12:05PM 26.8164 -80.0947 128° Southeast 153 176 2,600  Level Miami Center
12:06PM 26.7753 -80.0864 170° South 149 171 2,600 -60 Level Miami Center
12:07PM 26.7328 -80.0892 183° South 144 166 2,500  Descending Miami Center
12:08PM 26.6917 -80.0936 186° South 147 169 2,600  Climbing Miami Center
12:09PM 26.6475 -80.0969 184° South 148 170 2,600 -120 Level Miami Center
12:10PM 26.6056 -80.1039 188° South 150 173 2,400 -240 Descending Miami Center
12:11PM 26.5617 -80.1164 194° South 151 174 2,200 -300 Descending Miami Center
12:12PM 26.5222 -80.1294 196° South 147 169 1,900 -180 Descending Miami Center
12:13PM 26.4861 -80.1472 204° Southwest 135 155 1,900  Level Miami Center
12:14PM 26.4550 -80.1664 209° Southwest 130 150 1,900  Level Miami Center
12:15PM 26.4275 -80.1842 210° Southwest 130 150 1,900  Level Miami Center
12:17PM 26.3679 -80.1600 180° South  Level Estimated
12:24PM 26.2471 -80.1111 180° South  Level Estimated